createdAt,value
2023-05-14T00:00:51.070Z,585.0000
2023-05-14T00:01:52.500Z,585.8461
2023-05-14T00:02:53.943Z,582.8461
2023-05-14T00:03:55.321Z,577.5385
2023-05-14T00:04:56.663Z,573.2308
2023-05-14T00:05:58.109Z,578.0769
2023-05-14T00:06:59.626Z,569.3077
2023-05-14T00:08:01.001Z,578.0769
2023-05-14T00:09:02.356Z,565.3077
2023-05-14T00:10:03.832Z,559.0769
2023-05-14T00:11:05.205Z,574.6923
2023-05-14T00:12:06.742Z,582.1539
2023-05-14T00:13:08.143Z,579.0769
2023-05-14T00:14:09.513Z,572.4615
2023-05-14T00:15:10.872Z,565.5385
2023-05-14T00:16:12.398Z,568.0000
2023-05-14T00:17:13.769Z,572.2308
2023-05-14T00:18:15.251Z,575.7692
2023-05-14T00:19:16.671Z,570.6154
2023-05-14T00:20:18.117Z,559.1539
2023-05-14T00:21:19.393Z,580.6154
2023-05-14T00:22:20.897Z,579.0769
2023-05-14T00:23:22.351Z,571.4615
2023-05-14T00:24:23.719Z,568.6154
2023-05-14T00:25:25.085Z,573.7692
2023-05-14T00:26:26.631Z,578.9231
2023-05-14T00:27:28.064Z,580.5385
2023-05-14T00:28:29.485Z,571.1539
2023-05-14T00:29:30.891Z,564.7692
2023-05-14T00:30:32.254Z,569.0769
2023-05-14T00:31:33.813Z,579.8461
2023-05-14T00:32:35.144Z,557.7692
2023-05-14T00:33:36.560Z,564.3077
2023-05-14T00:34:37.954Z,565.0769
2023-05-14T00:35:39.401Z,575.8461
2023-05-14T00:36:40.816Z,574.3077
2023-05-14T00:37:42.282Z,574.0769
2023-05-14T00:38:43.615Z,571.4615
2023-05-14T00:39:45.080Z,559.6154
2023-05-14T00:40:46.472Z,577.2308
2023-05-14T00:41:47.840Z,561.3846
2023-05-14T00:42:49.271Z,572.3077
2023-05-14T00:43:50.834Z,570.3846
2023-05-14T00:44:52.183Z,576.4615
2023-05-14T00:45:53.678Z,569.6154
2023-05-14T00:46:55.097Z,569.3846
2023-05-14T00:47:56.519Z,575.3077
2023-05-14T00:48:57.928Z,575.3846
2023-05-14T00:49:59.349Z,573.4615
2023-05-14T00:51:00.739Z,577.4615
2023-05-14T00:52:02.200Z,576.8461
2023-05-14T00:53:03.643Z,575.5385
2023-05-14T00:54:05.805Z,571.1539
2023-05-14T00:55:06.584Z,564.5385
2023-05-14T00:56:07.841Z,562.1539
2023-05-14T00:57:09.307Z,569.6923
2023-05-14T00:58:10.742Z,569.1539
2023-05-14T00:59:12.193Z,572.4615
2023-05-14T01:00:13.500Z,571.5385
2023-05-14T01:01:14.980Z,557.9231
2023-05-14T01:02:16.479Z,566.1539
2023-05-14T01:03:18.007Z,569.7692
2023-05-14T01:04:19.273Z,564.2308
2023-05-14T01:05:20.755Z,568.7692
2023-05-14T01:06:22.090Z,569.1539
2023-05-14T01:07:23.520Z,569.0000
2023-05-14T01:08:25.046Z,565.0000
2023-05-14T01:09:26.397Z,573.3077
2023-05-14T01:10:27.810Z,555.5385
2023-05-14T01:11:29.282Z,568.3846
2023-05-14T01:12:30.701Z,568.0769
2023-05-14T01:13:32.049Z,565.9231
2023-05-14T01:14:33.476Z,566.1539
2023-05-14T01:15:34.903Z,570.5385
2023-05-14T01:16:36.382Z,562.0769
2023-05-14T01:17:37.811Z,563.7692
2023-05-14T01:18:39.288Z,565.5385
2023-05-14T01:19:40.664Z,568.4615
2023-05-14T01:20:42.071Z,571.0000
2023-05-14T01:21:43.458Z,560.5385
2023-05-14T01:22:44.943Z,559.5385
2023-05-14T01:23:46.324Z,561.9231
2023-05-14T01:24:47.733Z,561.6154
2023-05-14T01:25:49.222Z,559.7692
2023-05-14T01:26:50.527Z,561.9231
2023-05-14T01:27:52.109Z,570.0769
2023-05-14T01:28:53.416Z,567.3077
2023-05-14T01:29:54.833Z,564.4615
2023-05-14T01:30:56.407Z,556.5385
2023-05-14T01:31:58.906Z,558.0000
2023-05-14T01:32:59.197Z,559.5385
2023-05-14T01:34:00.612Z,564.3846
2023-05-14T01:35:02.084Z,568.2308
2023-05-14T01:36:04.370Z,567.3077
2023-05-14T01:37:04.952Z,568.3846
2023-05-14T01:38:06.408Z,564.0000
2023-05-14T01:39:07.788Z,564.8461
2023-05-14T01:40:09.143Z,560.5385
2023-05-14T01:41:10.634Z,556.3077
2023-05-14T01:42:12.064Z,563.0000
2023-05-14T01:43:13.489Z,563.7692
2023-05-14T01:44:14.898Z,559.6923
2023-05-14T01:45:16.286Z,559.3077
2023-05-14T01:46:17.808Z,555.4615
2023-05-14T01:47:19.886Z,559.0769
2023-05-14T01:48:20.567Z,552.6923
2023-05-14T01:49:21.958Z,550.8461
2023-05-14T01:50:23.689Z,561.6154
2023-05-14T01:51:24.853Z,559.6154
2023-05-14T01:52:26.283Z,560.9231
2023-05-14T01:53:27.631Z,562.6154
2023-05-14T01:54:29.144Z,558.6923
2023-05-14T01:55:30.472Z,548.3846
2023-05-14T01:56:31.959Z,549.0769
2023-05-14T01:57:33.446Z,553.8461
2023-05-14T01:58:34.757Z,553.5385
2023-05-14T01:59:36.118Z,550.6923
2023-05-14T02:00:37.614Z,539.0000
2023-05-14T02:01:39.131Z,552.6923
2023-05-14T02:02:40.476Z,546.6154
2023-05-14T02:03:42.006Z,548.8461
2023-05-14T02:04:43.321Z,545.2308
2023-05-14T02:05:44.686Z,537.3846
2023-05-14T02:06:46.852Z,547.6154
2023-05-14T02:07:47.669Z,549.9231
2023-05-14T02:08:48.977Z,549.8461
2023-05-14T02:09:50.473Z,554.3077
2023-05-14T02:10:51.823Z,550.1539
2023-05-14T02:11:53.353Z,553.4615
2023-05-14T02:12:54.685Z,551.3846
2023-05-14T02:13:56.162Z,538.2308
2023-05-14T02:14:57.613Z,546.0000
2023-05-14T02:15:59.121Z,549.6154
2023-05-14T02:17:00.429Z,548.8461
2023-05-14T02:18:01.993Z,544.2308
2023-05-14T02:19:03.378Z,550.6154
2023-05-14T02:20:04.677Z,542.2308
2023-05-14T02:21:06.080Z,550.3077
2023-05-14T02:22:07.569Z,548.1539
2023-05-14T02:23:08.932Z,546.3077
2023-05-14T02:24:10.314Z,547.2308
2023-05-14T02:25:11.778Z,544.9231
2023-05-14T02:26:13.253Z,541.2308
2023-05-14T02:27:14.776Z,542.6923
2023-05-14T02:28:16.047Z,540.7692
2023-05-14T02:29:17.483Z,542.9231
2023-05-14T02:30:18.859Z,545.0769
2023-05-14T02:31:20.395Z,542.3846
2023-05-14T02:32:21.827Z,547.3077
2023-05-14T02:33:23.322Z,546.2308
2023-05-14T02:34:24.599Z,548.3846
2023-05-14T02:35:26.068Z,540.9231
2023-05-14T02:36:27.420Z,539.8461
2023-05-14T02:37:28.992Z,536.4615
2023-05-14T02:38:30.292Z,538.1539
2023-05-14T02:39:31.643Z,537.0769
2023-05-14T02:40:33.107Z,538.6923
2023-05-14T02:41:34.593Z,540.0769
2023-05-14T02:42:35.990Z,551.4615
2023-05-14T02:43:37.440Z,542.3846
2023-05-14T02:44:38.722Z,540.6154
2023-05-14T02:45:40.306Z,543.0769
2023-05-14T02:46:41.719Z,539.1539
2023-05-14T02:47:43.945Z,535.0769
2023-05-14T02:48:45.333Z,535.0000
2023-05-14T02:49:45.831Z,541.0000
2023-05-14T02:50:47.420Z,542.3846
2023-05-14T02:51:48.778Z,531.1539
2023-05-14T02:52:50.293Z,534.0769
2023-05-14T02:53:51.696Z,539.1539
2023-05-14T02:54:53.814Z,530.4615
2023-05-14T02:55:54.546Z,531.7692
2023-05-14T02:56:55.908Z,529.0000
2023-05-14T02:57:57.356Z,536.5385
2023-05-14T02:58:59.417Z,523.9231
2023-05-14T03:00:00.052Z,530.6154
2023-05-14T03:01:01.647Z,526.0000
2023-05-14T03:02:03.093Z,530.3077
2023-05-14T03:03:04.467Z,529.0000
2023-05-14T03:04:05.899Z,526.9231
2023-05-14T03:05:07.286Z,527.3846
2023-05-14T03:06:08.728Z,529.8461
2023-05-14T03:07:10.116Z,523.6154
2023-05-14T03:08:11.449Z,532.4615
2023-05-14T03:09:12.956Z,525.3077
2023-05-14T03:10:14.407Z,529.0769
2023-05-14T03:11:15.792Z,520.6154
2023-05-14T03:12:17.246Z,518.0000
2023-05-14T03:13:18.552Z,527.3077
2023-05-14T03:14:20.063Z,524.6154
2023-05-14T03:15:21.414Z,528.6154
2023-05-14T03:16:22.930Z,521.5385
2023-05-14T03:17:24.274Z,522.1539
2023-05-14T03:18:25.855Z,520.2308
2023-05-14T03:19:27.160Z,519.4615
2023-05-14T03:20:28.593Z,524.0000
2023-05-14T03:21:30.020Z,515.3077
2023-05-14T03:22:31.425Z,514.0000
2023-05-14T03:23:33.366Z,515.2308
2023-05-14T03:24:34.289Z,514.6154
2023-05-14T03:25:35.702Z,512.5385
2023-05-14T03:26:37.076Z,515.8461
2023-05-14T03:27:38.551Z,518.0000
2023-05-14T03:28:39.977Z,516.6154
2023-05-14T03:29:41.416Z,516.2308
2023-05-14T03:30:42.920Z,513.4615
2023-05-14T03:31:44.240Z,513.5385
2023-05-14T03:32:45.642Z,517.3846
2023-05-14T03:33:47.048Z,515.3846
2023-05-14T03:34:48.486Z,506.1538
2023-05-14T03:35:49.920Z,512.5385
2023-05-14T03:36:51.283Z,518.6923
2023-05-14T03:37:52.753Z,512.7692
2023-05-14T03:38:54.180Z,511.4615
2023-05-14T03:39:55.668Z,515.3846
2023-05-14T03:40:57.014Z,513.3846
2023-05-14T03:41:58.441Z,514.2308
2023-05-14T03:42:59.827Z,501.5385
2023-05-14T03:44:01.320Z,506.2308
2023-05-14T03:45:02.760Z,507.0000
2023-05-14T03:46:04.139Z,501.5385
2023-05-14T03:47:05.605Z,507.0769
2023-05-14T03:48:07.102Z,503.6923
2023-05-14T03:49:08.482Z,502.6154
2023-05-14T03:50:09.958Z,504.1538
2023-05-14T03:51:11.259Z,503.6923
2023-05-14T03:52:12.695Z,502.0769
2023-05-14T03:53:14.093Z,506.2308
2023-05-14T03:54:15.549Z,503.9231
2023-05-14T03:55:17.024Z,504.3846
2023-05-14T03:56:18.285Z,504.0000
2023-05-14T03:57:19.756Z,500.5385
2023-05-14T03:58:21.237Z,507.3077
2023-05-14T03:59:22.651Z,500.1538
2023-05-14T04:00:24.333Z,505.0769
2023-05-14T04:01:25.505Z,507.7692
2023-05-14T04:02:27.046Z,508.3077
2023-05-14T04:03:28.407Z,508.0000
2023-05-14T04:04:29.828Z,507.5385
2023-05-14T04:05:31.904Z,508.7692
2023-05-14T04:06:32.607Z,510.0769
2023-05-14T04:07:34.014Z,500.5385
2023-05-14T04:08:35.509Z,503.0769
2023-05-14T04:09:36.938Z,491.3846
2023-05-14T04:10:38.448Z,502.9231
2023-05-14T04:11:39.792Z,500.2308
2023-05-14T04:12:41.184Z,503.6923
2023-05-14T04:13:42.569Z,508.3077
2023-05-14T04:14:44.046Z,517.0000
2023-05-14T04:15:46.354Z,505.3077
2023-05-14T04:16:46.980Z,508.4615
2023-05-14T04:17:48.350Z,511.3846
2023-05-14T04:18:49.780Z,509.5385
2023-05-14T04:19:51.141Z,516.2308
2023-05-14T04:20:52.609Z,516.0000
2023-05-14T04:21:54.033Z,515.6923
2023-05-14T04:22:55.352Z,516.0769
2023-05-14T04:23:56.871Z,524.3846
2023-05-14T04:24:58.393Z,519.6923
2023-05-14T04:25:59.681Z,519.9231
2023-05-14T04:27:01.150Z,524.7692
2023-05-14T04:28:02.514Z,519.2308
2023-05-14T04:29:03.884Z,519.0769
2023-05-14T04:30:05.380Z,521.5385
2023-05-14T04:31:06.831Z,524.2308
2023-05-14T04:32:08.307Z,529.6154
2023-05-14T04:33:09.748Z,524.8461
2023-05-14T04:34:11.076Z,516.1539
2023-05-14T04:35:12.561Z,525.1539
2023-05-14T04:36:13.957Z,527.0769
2023-05-14T04:37:15.289Z,530.7692
2023-05-14T04:38:16.762Z,530.3077
2023-05-14T04:39:18.217Z,530.1539
2023-05-14T04:40:19.704Z,533.1539
2023-05-14T04:41:21.145Z,530.3077
2023-05-14T04:42:22.443Z,536.3077
2023-05-14T04:43:23.934Z,528.7692
2023-05-14T04:44:25.315Z,530.5385
2023-05-14T04:45:26.819Z,523.7692
2023-05-14T04:46:28.369Z,535.5385
2023-05-14T04:47:29.762Z,539.4615
2023-05-14T04:48:31.052Z,545.7692
2023-05-14T04:49:32.534Z,536.8461
2023-05-14T04:50:33.900Z,540.7692
2023-05-14T04:51:35.386Z,537.7692
2023-05-14T04:52:36.749Z,539.4615
2023-05-14T04:53:38.217Z,542.6154
2023-05-14T04:54:39.716Z,527.9231
2023-05-14T04:55:40.958Z,542.5385
2023-05-14T04:56:42.582Z,535.2308
2023-05-14T04:57:43.901Z,534.3846
2023-05-14T04:58:45.284Z,532.8461
2023-05-14T04:59:46.770Z,548.0769
2023-05-14T05:00:48.253Z,542.3846
2023-05-14T05:01:49.698Z,543.0769
2023-05-14T05:02:51.029Z,543.9231
2023-05-14T05:03:52.368Z,527.9231
2023-05-14T05:04:53.880Z,531.4615
2023-05-14T05:05:55.322Z,538.3077
2023-05-14T05:06:56.745Z,536.8461
2023-05-14T05:07:58.188Z,533.3077
2023-05-14T05:09:01.845Z,540.0000
2023-05-14T05:10:00.991Z,540.5385
2023-05-14T05:11:02.464Z,543.3077
2023-05-14T05:12:03.866Z,532.1539
2023-05-14T05:13:05.376Z,532.5385
2023-05-14T05:14:06.826Z,537.6154
2023-05-14T05:15:08.137Z,541.8461
2023-05-14T05:16:09.723Z,523.0769
2023-05-14T05:17:11.012Z,545.7692
2023-05-14T05:18:12.467Z,543.3846
2023-05-14T05:19:13.981Z,542.0000
2023-05-14T05:20:15.377Z,544.0000
2023-05-14T05:21:16.650Z,535.6154
2023-05-14T05:22:18.947Z,534.6154
2023-05-14T05:23:19.491Z,520.6154
2023-05-14T05:24:20.962Z,533.3077
2023-05-14T05:25:22.389Z,552.2308
2023-05-14T05:26:23.802Z,546.3846
2023-05-14T05:27:25.237Z,546.1539
2023-05-14T05:28:26.664Z,539.6923
2023-05-14T05:29:28.031Z,536.4615
2023-05-14T05:30:29.475Z,551.3077
2023-05-14T05:31:30.970Z,540.0769
2023-05-14T05:32:32.487Z,532.7692
2023-05-14T05:33:33.839Z,550.6923
2023-05-14T05:34:35.255Z,553.5385
2023-05-14T05:35:36.710Z,559.5385
2023-05-14T05:36:38.039Z,555.9231
2023-05-14T05:37:39.565Z,547.5385
2023-05-14T05:38:40.973Z,553.0769
2023-05-14T05:39:42.390Z,559.4615
2023-05-14T05:40:43.774Z,552.6154
2023-05-14T05:41:45.353Z,558.0769
2023-05-14T05:42:46.613Z,545.3846
2023-05-14T05:43:48.190Z,547.0000
2023-05-14T05:44:49.591Z,531.7692
2023-05-14T05:45:51.002Z,533.3077
2023-05-14T05:46:52.386Z,542.3846
2023-05-14T05:47:53.874Z,551.6923
2023-05-14T05:48:55.130Z,560.3077
2023-05-14T05:49:56.612Z,569.2308
2023-05-14T05:50:57.986Z,546.0000
2023-05-14T05:51:59.459Z,564.0769
2023-05-14T05:53:00.934Z,560.3846
2023-05-14T05:54:02.470Z,555.6923
2023-05-14T05:55:03.781Z,571.0000
2023-05-14T05:56:05.123Z,561.3846
2023-05-14T05:57:06.578Z,556.0769
2023-05-14T05:58:08.030Z,554.0000
2023-05-14T05:59:09.468Z,547.7692
2023-05-14T06:00:10.869Z,556.3077
2023-05-14T06:01:12.255Z,554.5385
2023-05-14T06:02:13.773Z,556.9231
2023-05-14T06:03:15.163Z,561.9231
2023-05-14T06:04:16.609Z,579.4615
2023-05-14T06:05:18.007Z,575.5385
2023-05-14T06:06:19.535Z,577.0000
2023-05-14T06:07:20.794Z,589.8461
2023-05-14T06:08:22.273Z,601.6923
2023-05-14T06:09:23.664Z,618.9231
2023-05-14T06:10:25.374Z,639.2308
2023-05-14T06:11:26.497Z,650.6923
2023-05-14T06:12:27.953Z,639.5385
2023-05-14T06:13:29.350Z,644.9231
2023-05-14T06:14:30.829Z,655.9231
2023-05-14T06:15:32.165Z,673.6154
2023-05-14T06:16:33.697Z,689.4615
2023-05-14T06:17:35.063Z,700.1539
2023-05-14T06:18:36.582Z,718.3846
2023-05-14T06:19:37.969Z,707.3846
2023-05-14T06:20:39.389Z,707.6923
2023-05-14T06:21:40.680Z,709.2308
2023-05-14T06:22:42.122Z,720.9231
2023-05-14T06:23:43.625Z,728.6923
2023-05-14T06:24:45.017Z,740.5385
2023-05-14T06:25:46.570Z,755.0000
2023-05-14T06:26:47.849Z,770.0000
2023-05-14T06:27:49.258Z,796.7692
2023-05-14T06:28:50.624Z,800.0000
2023-05-14T06:29:52.069Z,793.7692
2023-05-14T06:30:53.514Z,782.5385
2023-05-14T06:31:54.999Z,791.4615
2023-05-14T06:32:56.335Z,810.8461
2023-05-14T06:33:57.645Z,822.3077
2023-05-14T06:34:59.183Z,842.7692
2023-05-14T06:36:00.570Z,815.3846
2023-05-14T06:37:01.973Z,791.3846
2023-05-14T06:38:03.372Z,809.0000
2023-05-14T06:39:04.805Z,833.6154
2023-05-14T06:40:06.269Z,848.6923
2023-05-14T06:41:07.670Z,869.3077
2023-05-14T06:42:09.027Z,874.3077
2023-05-14T06:43:10.585Z,828.9231
2023-05-14T06:44:11.917Z,821.4615
2023-05-14T06:45:13.398Z,852.3077
2023-05-14T06:46:14.760Z,875.4615
2023-05-14T06:47:16.213Z,886.6923
2023-05-14T06:48:17.549Z,899.9231
2023-05-14T06:49:19.024Z,857.5385
2023-05-14T06:50:20.518Z,841.2308
2023-05-14T06:51:21.924Z,873.8461
2023-05-14T06:52:23.353Z,899.4615
2023-05-14T06:53:24.797Z,917.8461
2023-05-14T06:54:26.191Z,918.1539
2023-05-14T06:55:27.602Z,884.8461
2023-05-14T06:56:28.947Z,860.6923
2023-05-14T06:57:30.505Z,898.1539
2023-05-14T06:58:31.769Z,923.6923
2023-05-14T06:59:33.245Z,930.9231
2023-05-14T07:00:34.710Z,917.1539
2023-05-14T07:01:36.234Z,877.0000
2023-05-14T07:02:37.401Z,896.6154
2023-05-14T07:03:39.017Z,929.2308
2023-05-14T07:04:40.392Z,946.2308
2023-05-14T07:05:41.842Z,925.0769
2023-05-14T07:06:43.187Z,883.6154
2023-05-14T07:07:44.629Z,906.5385
2023-05-14T07:08:46.030Z,941.0769
2023-05-14T07:09:47.464Z,956.6154
2023-05-14T07:10:48.929Z,931.6923
2023-05-14T07:11:50.329Z,894.6923
2023-05-14T07:12:51.725Z,919.5385
2023-05-14T07:13:53.244Z,952.5385
2023-05-14T07:14:54.551Z,968.3077
2023-05-14T07:15:56.089Z,919.7692
2023-05-14T07:16:57.523Z,887.3846
2023-05-14T07:17:58.907Z,907.4615
2023-05-14T07:19:00.331Z,922.0000
2023-05-14T07:20:01.833Z,930.9231
2023-05-14T07:21:03.168Z,887.5385
2023-05-14T07:22:04.492Z,847.3077
2023-05-14T07:23:05.902Z,856.8461
2023-05-14T07:24:07.444Z,881.4615
2023-05-14T07:25:08.782Z,888.0000
2023-05-14T07:26:10.287Z,852.0769
2023-05-14T07:27:11.770Z,819.6923
2023-05-14T07:28:13.126Z,836.0769
2023-05-14T07:29:14.406Z,848.6923
2023-05-14T07:30:16.077Z,861.0000
2023-05-14T07:31:17.360Z,859.8461
2023-05-14T07:32:18.781Z,861.0769
2023-05-14T07:33:20.210Z,818.7692
2023-05-14T07:34:21.585Z,807.0769
2023-05-14T07:35:23.022Z,819.6154
2023-05-14T07:36:24.496Z,833.7692
2023-05-14T07:37:25.941Z,833.9231
2023-05-14T07:38:27.350Z,841.3846
2023-05-14T07:39:28.765Z,853.9231
2023-05-14T07:40:30.140Z,834.6154
2023-05-14T07:41:31.661Z,794.6154
2023-05-14T07:42:36.588Z,806.5385
2023-05-14T07:43:34.390Z,819.5385
2023-05-14T07:44:35.834Z,819.6154
2023-05-14T07:45:37.288Z,831.0000
2023-05-14T07:46:38.694Z,830.7692
2023-05-14T07:47:40.152Z,833.6923
2023-05-14T07:48:41.528Z,809.6154
2023-05-14T07:49:42.919Z,787.6923
2023-05-14T07:50:44.358Z,788.4615
2023-05-14T07:51:45.836Z,806.4615
2023-05-14T07:52:47.231Z,812.0769
2023-05-14T07:53:48.624Z,810.8461
2023-05-14T07:54:50.757Z,815.9231
2023-05-14T07:55:51.436Z,818.9231
2023-05-14T07:56:52.889Z,800.5385
2023-05-14T07:57:54.356Z,767.6923
2023-05-14T07:58:55.693Z,782.3077
2023-05-14T07:59:57.073Z,789.3077
2023-05-14T08:00:58.555Z,798.9231
2023-05-14T08:02:00.067Z,805.6923
2023-05-14T08:03:01.459Z,809.3846
2023-05-14T08:04:02.927Z,818.4615
2023-05-14T08:05:04.257Z,792.6923
2023-05-14T08:06:05.728Z,766.3846
2023-05-14T08:07:07.122Z,774.9231
2023-05-14T08:08:08.571Z,786.4615
2023-05-14T08:09:09.894Z,793.6923
2023-05-14T08:10:11.352Z,800.9231
2023-05-14T08:11:12.753Z,804.0769
2023-05-14T08:12:14.222Z,807.3846
2023-05-14T08:13:15.652Z,783.3846
2023-05-14T08:14:16.952Z,756.5385
2023-05-14T08:15:18.434Z,768.1539
2023-05-14T08:16:19.949Z,789.1539
2023-05-14T08:17:21.348Z,789.2308
2023-05-14T08:18:22.765Z,801.6154
2023-05-14T08:19:24.168Z,810.3846
2023-05-14T08:20:25.886Z,812.2308
2023-05-14T08:21:26.969Z,782.3846
2023-05-14T08:22:28.427Z,764.3077
2023-05-14T08:23:29.885Z,785.3077
2023-05-14T08:24:31.328Z,787.1539
2023-05-14T08:25:32.713Z,803.4615
2023-05-14T08:26:34.216Z,806.4615
2023-05-14T08:27:35.597Z,818.1539
2023-05-14T08:28:37.079Z,804.0769
2023-05-14T08:29:38.454Z,769.7692
2023-05-14T08:30:39.806Z,771.9231
2023-05-14T08:31:41.304Z,781.8461
2023-05-14T08:32:42.733Z,801.0769
2023-05-14T08:33:44.173Z,809.4615
2023-05-14T08:34:45.623Z,824.1539
2023-05-14T08:35:46.961Z,825.7692
2023-05-14T08:36:48.401Z,756.1539
2023-05-14T08:37:49.819Z,745.6923
2023-05-14T08:38:51.253Z,771.3077
2023-05-14T08:39:52.680Z,794.8461
2023-05-14T08:40:54.116Z,812.2308
2023-05-14T08:41:55.462Z,816.9231
2023-05-14T08:42:56.960Z,831.2308
2023-05-14T08:43:58.381Z,809.4615
2023-05-14T08:44:59.755Z,744.0769
2023-05-14T08:46:01.217Z,750.3846
2023-05-14T08:47:02.647Z,776.4615
2023-05-14T08:48:04.091Z,796.4615
2023-05-14T08:49:05.593Z,813.4615
2023-05-14T08:50:06.864Z,824.1539
2023-05-14T08:51:08.250Z,838.0769
2023-05-14T08:52:09.640Z,793.0000
2023-05-14T08:53:11.109Z,751.6154
2023-05-14T08:54:12.481Z,775.3846
2023-05-14T08:55:14.051Z,803.0000
2023-05-14T08:56:15.336Z,822.9231
2023-05-14T08:57:16.799Z,834.2308
2023-05-14T08:58:18.136Z,839.3846
2023-05-14T08:59:19.713Z,787.6154
2023-05-14T09:00:21.164Z,764.8461
2023-05-14T09:01:22.582Z,791.5385
2023-05-14T09:02:23.937Z,810.5385
2023-05-14T09:03:25.432Z,824.7692
2023-05-14T09:04:26.818Z,841.8461
2023-05-14T09:05:28.253Z,844.5385
2023-05-14T09:06:29.688Z,800.0000
2023-05-14T09:07:31.024Z,758.1539
2023-05-14T09:08:32.397Z,784.0769
2023-05-14T09:09:33.922Z,795.5385
2023-05-14T09:10:35.344Z,819.6154
2023-05-14T09:11:36.692Z,832.3846
2023-05-14T09:12:38.176Z,834.8461
2023-05-14T09:13:39.574Z,837.7692
2023-05-14T09:14:41.004Z,772.3846
2023-05-14T09:15:42.360Z,750.4615
2023-05-14T09:16:43.886Z,779.2308
2023-05-14T09:17:45.320Z,794.3846
2023-05-14T09:18:46.810Z,819.3077
2023-05-14T09:19:48.205Z,832.3846
2023-05-14T09:20:49.497Z,834.3846
2023-05-14T09:21:50.932Z,817.3846
2023-05-14T09:22:52.364Z,752.3077
2023-05-14T09:23:53.796Z,756.6154
2023-05-14T09:24:55.256Z,783.3846
2023-05-14T09:25:56.748Z,809.5385
2023-05-14T09:26:58.042Z,816.7692
2023-05-14T09:27:59.482Z,831.6154
2023-05-14T09:29:00.764Z,840.2308
2023-05-14T09:30:02.413Z,831.5385
2023-05-14T09:31:03.869Z,766.3077
2023-05-14T09:32:05.353Z,758.6923
2023-05-14T09:33:06.591Z,780.3846
2023-05-14T09:34:08.038Z,794.1539
2023-05-14T09:35:09.520Z,816.5385
2023-05-14T09:36:11.038Z,824.7692
2023-05-14T09:37:12.401Z,832.7692
2023-05-14T09:38:13.869Z,837.3077
2023-05-14T09:39:15.272Z,778.4615
2023-05-14T09:40:16.832Z,736.5385
2023-05-14T09:41:18.108Z,767.3846
2023-05-14T09:42:19.530Z,782.2308
2023-05-14T09:43:20.978Z,798.7692
2023-05-14T09:44:22.374Z,806.7692
2023-05-14T09:45:23.813Z,820.5385
2023-05-14T09:46:25.294Z,826.6154
2023-05-14T09:47:26.706Z,837.0769
2023-05-14T09:48:28.143Z,775.7692
2023-05-14T09:49:29.492Z,752.8461
2023-05-14T09:50:30.976Z,773.1539
2023-05-14T09:51:32.399Z,790.1539
2023-05-14T09:52:33.832Z,814.3846
2023-05-14T09:53:35.287Z,817.2308
2023-05-14T09:54:36.613Z,830.0000
2023-05-14T09:55:38.106Z,821.1539
2023-05-14T09:56:39.627Z,751.8461
2023-05-14T09:57:40.987Z,747.5385
2023-05-14T09:58:42.265Z,779.3077
2023-05-14T09:59:43.837Z,785.5385
2023-05-14T10:00:45.239Z,812.4615
2023-05-14T10:01:46.707Z,834.0769
2023-05-14T10:02:48.144Z,843.5385
2023-05-14T10:03:49.644Z,831.0769
2023-05-14T10:04:50.963Z,755.4615
2023-05-14T10:05:52.462Z,759.4615
2023-05-14T10:06:53.837Z,783.0769
2023-05-14T10:07:55.333Z,811.6154
2023-05-14T10:08:56.613Z,836.6923
2023-05-14T10:09:59.590Z,843.5385
2023-05-14T10:10:59.529Z,850.6923
2023-05-14T10:12:00.965Z,780.4615
2023-05-14T10:13:02.479Z,752.0769
2023-05-14T10:14:03.780Z,789.3846
2023-05-14T10:15:05.158Z,807.7692
2023-05-14T10:16:06.661Z,836.9231
2023-05-14T10:17:08.436Z,856.3077
2023-05-14T10:18:09.710Z,874.0000
2023-05-14T10:19:10.931Z,815.5385
2023-05-14T10:20:12.426Z,767.3846
2023-05-14T10:21:13.767Z,790.5385
2023-05-14T10:22:15.197Z,820.2308
2023-05-14T10:23:16.626Z,843.0769
2023-05-14T10:24:18.116Z,861.7692
2023-05-14T10:25:19.447Z,871.8461
2023-05-14T10:26:23.087Z,841.7692
2023-05-14T10:27:22.380Z,764.0769
2023-05-14T10:28:23.784Z,781.1539
2023-05-14T10:29:25.246Z,822.0769
2023-05-14T10:30:26.889Z,846.4615
2023-05-14T10:31:28.107Z,873.6154
2023-05-14T10:32:29.622Z,862.5385
2023-05-14T10:33:30.921Z,780.3077
2023-05-14T10:34:32.382Z,775.8461
2023-05-14T10:35:33.603Z,822.1539
2023-05-14T10:36:35.190Z,850.3077
2023-05-14T10:37:36.630Z,875.4615
2023-05-14T10:38:38.067Z,891.0000
2023-05-14T10:39:39.505Z,837.5385
2023-05-14T10:40:40.864Z,772.9231
2023-05-14T10:41:42.288Z,789.0000
2023-05-14T10:42:43.734Z,824.0769
2023-05-14T10:43:45.167Z,854.8461
2023-05-14T10:44:46.611Z,879.0769
2023-05-14T10:45:47.949Z,875.6923
2023-05-14T10:46:49.467Z,793.6923
2023-05-14T10:47:51.045Z,789.5385
2023-05-14T10:48:52.337Z,820.7692
2023-05-14T10:49:53.700Z,850.4615
2023-05-14T10:50:55.209Z,873.8461
2023-05-14T10:51:56.527Z,889.5385
2023-05-14T10:52:57.941Z,839.6923
2023-05-14T10:53:59.371Z,771.1539
2023-05-14T10:55:03.189Z,793.8461
2023-05-14T10:56:02.250Z,833.3846
2023-05-14T10:57:03.531Z,850.6923
2023-05-14T10:58:05.211Z,874.6154
2023-05-14T10:59:06.663Z,888.6923
2023-05-14T11:00:08.664Z,815.3077
2023-05-14T11:01:09.343Z,780.8461
2023-05-14T11:02:10.868Z,809.3846
2023-05-14T11:03:12.417Z,847.3846
2023-05-14T11:04:13.795Z,876.6154
2023-05-14T11:05:15.069Z,888.9231
2023-05-14T11:06:16.541Z,839.8461
2023-05-14T11:07:17.934Z,783.4615
2023-05-14T11:08:19.358Z,808.6154
2023-05-14T11:09:20.812Z,838.7692
2023-05-14T11:10:22.510Z,859.5385
2023-05-14T11:11:23.615Z,881.0769
2023-05-14T11:12:25.010Z,864.0769
2023-05-14T11:13:26.291Z,797.0769
2023-05-14T11:14:27.887Z,803.3846
2023-05-14T11:15:29.342Z,830.1539
2023-05-14T11:16:30.691Z,854.5385
2023-05-14T11:17:32.202Z,865.1539
2023-05-14T11:18:33.643Z,891.7692
2023-05-14T11:19:35.015Z,853.7692
2023-05-14T11:20:36.362Z,794.4615
2023-05-14T11:21:37.879Z,805.1539
2023-05-14T11:22:39.186Z,827.5385
2023-05-14T11:23:40.723Z,856.4615
2023-05-14T11:24:42.286Z,870.3846
2023-05-14T11:25:43.602Z,888.4615
2023-05-14T11:26:44.930Z,864.0769
2023-05-14T11:27:46.354Z,808.3846
2023-05-14T11:28:47.776Z,812.7692
2023-05-14T11:29:49.210Z,837.3077
2023-05-14T11:30:50.676Z,860.1539
2023-05-14T11:31:52.164Z,877.8461
2023-05-14T11:32:53.399Z,887.0769
2023-05-14T11:33:54.927Z,843.2308
2023-05-14T11:34:56.343Z,815.2308
2023-05-14T11:35:57.798Z,838.0769
2023-05-14T11:36:59.297Z,861.7692
2023-05-14T11:38:00.654Z,878.4615
2023-05-14T11:39:01.992Z,891.4615
2023-05-14T11:40:03.503Z,864.2308
2023-05-14T11:41:04.831Z,832.9231
2023-05-14T11:42:06.290Z,848.0000
2023-05-14T11:43:07.677Z,863.7692
2023-05-14T11:44:09.269Z,888.1539
2023-05-14T11:45:10.636Z,892.0769
2023-05-14T11:46:12.036Z,808.8461
2023-05-14T11:47:13.357Z,788.6154
2023-05-14T11:48:14.852Z,821.6154
2023-05-14T11:49:16.184Z,849.4615
2023-05-14T11:50:17.652Z,871.2308
2023-05-14T11:51:19.183Z,892.0769
2023-05-14T11:52:20.542Z,883.4615
2023-05-14T11:53:22.093Z,825.3846
2023-05-14T11:54:23.308Z,822.0000
2023-05-14T11:55:24.771Z,845.7692
2023-05-14T11:56:26.301Z,865.7692
2023-05-14T11:57:27.664Z,886.6154
2023-05-14T11:58:29.068Z,894.0000
2023-05-14T11:59:30.434Z,856.2308
2023-05-14T12:00:31.882Z,848.4615
2023-05-14T12:01:33.338Z,839.3077